sensor_id;sensor_type;location;lat;lon;timestamp;P1;durP1;ratioP1;P2;durP2;ratioP2
55172;SDS011;41061;52.822;6.860;2023-07-29T00:02:25;8.45;;;6.63;;
55172;SDS011;41061;52.822;6.860;2023-07-29T00:04:54;7.82;;;6.32;;
55172;SDS011;41061;52.822;6.860;2023-07-29T00:07:20;11.95;;;7.30;;
55172;SDS011;41061;52.822;6.860;2023-07-29T00:09:47;11.57;;;7.13;;
55172;SDS011;41061;52.822;6.860;2023-07-29T00:12:13;9.65;;;6.90;;
55172;SDS011;41061;52.822;6.860;2023-07-29T00:14:39;9.68;;;6.68;;
55172;SDS011;41061;52.822;6.860;2023-07-29T00:17:05;8.30;;;6.93;;
55172;SDS011;41061;52.822;6.860;2023-07-29T00:19:31;9.20;;;6.97;;
55172;SDS011;41061;52.822;6.860;2023-07-29T00:21:59;8.60;;;7.20;;
55172;SDS011;41061;52.822;6.860;2023-07-29T00:24:26;11.00;;;6.90;;
55172;SDS011;41061;52.822;6.860;2023-07-29T00:26:52;9.60;;;7.07;;
55172;SDS011;41061;52.822;6.860;2023-07-29T00:29:18;9.38;;;6.57;;
55172;SDS011;41061;52.822;6.860;2023-07-29T00:31:44;10.80;;;7.38;;
55172;SDS011;41061;52.822;6.860;2023-07-29T00:34:10;11.65;;;7.80;;
55172;SDS011;41061;52.822;6.860;2023-07-29T00:36:42;9.60;;;7.43;;
55172;SDS011;41061;52.822;6.860;2023-07-29T00:39:08;11.68;;;8.32;;
55172;SDS011;41061;52.822;6.860;2023-07-29T00:41:34;12.35;;;9.50;;
55172;SDS011;41061;52.822;6.860;2023-07-29T00:44:00;12.60;;;8.60;;
55172;SDS011;41061;52.822;6.860;2023-07-29T00:46:27;11.65;;;9.18;;
55172;SDS011;41061;52.822;6.860;2023-07-29T00:48:53;12.45;;;9.30;;
55172;SDS011;41061;52.822;6.860;2023-07-29T00:51:20;12.90;;;9.35;;
55172;SDS011;41061;52.822;6.860;2023-07-29T00:53:46;13.18;;;10.23;;
55172;SDS011;41061;52.822;6.860;2023-07-29T00:56:12;13.60;;;9.70;;
55172;SDS011;41061;52.822;6.860;2023-07-29T00:58:38;13.85;;;9.30;;
55172;SDS011;41061;52.822;6.860;2023-07-29T01:01:04;13.85;;;9.30;;
55172;SDS011;41061;52.822;6.860;2023-07-29T01:03:31;14.13;;;9.05;;
55172;SDS011;41061;52.822;6.860;2023-07-29T01:08:31;13.35;;;9.65;;
55172;SDS011;41061;52.822;6.860;2023-07-29T01:13:43;11.20;;;8.90;;
55172;SDS011;41061;52.822;6.860;2023-07-29T01:16:17;13.98;;;9.25;;
55172;SDS011;41061;52.822;6.860;2023-07-29T01:18:43;12.48;;;8.82;;
55172;SDS011;41061;52.822;6.860;2023-07-29T01:21:13;13.68;;;9.10;;
55172;SDS011;41061;52.822;6.860;2023-07-29T01:23:40;13.20;;;9.07;;
55172;SDS011;41061;52.822;6.860;2023-07-29T01:26:06;12.20;;;8.55;;
55172;SDS011;41061;52.822;6.860;2023-07-29T01:28:32;11.18;;;8.95;;
55172;SDS011;41061;52.822;6.860;2023-07-29T01:31:01;13.05;;;8.70;;
55172;SDS011;41061;52.822;6.860;2023-07-29T01:33:30;10.35;;;7.78;;
55172;SDS011;41061;52.822;6.860;2023-07-29T01:35:58;12.95;;;8.93;;
55172;SDS011;41061;52.822;6.860;2023-07-29T01:38:36;12.80;;;8.10;;
55172;SDS011;41061;52.822;6.860;2023-07-29T01:41:04;12.07;;;8.10;;
55172;SDS011;41061;52.822;6.860;2023-07-29T01:43:32;11.98;;;7.95;;
55172;SDS011;41061;52.822;6.860;2023-07-29T01:45:58;12.95;;;8.00;;
55172;SDS011;41061;52.822;6.860;2023-07-29T01:48:26;11.68;;;8.20;;
55172;SDS011;41061;52.822;6.860;2023-07-29T01:50:55;10.75;;;8.15;;
55172;SDS011;41061;52.822;6.860;2023-07-29T01:53:21;12.85;;;8.68;;
55172;SDS011;41061;52.822;6.860;2023-07-29T01:55:47;10.15;;;7.63;;
55172;SDS011;41061;52.822;6.860;2023-07-29T01:58:13;13.80;;;8.55;;
55172;SDS011;41061;52.822;6.860;2023-07-29T02:00:39;10.20;;;7.47;;
55172;SDS011;41061;52.822;6.860;2023-07-29T02:03:06;13.13;;;8.07;;
55172;SDS011;41061;52.822;6.860;2023-07-29T02:05:32;11.07;;;8.07;;
55172;SDS011;41061;52.822;6.860;2023-07-29T02:07:58;12.32;;;8.45;;
55172;SDS011;41061;52.822;6.860;2023-07-29T02:10:24;10.93;;;7.43;;
55172;SDS011;41061;52.822;6.860;2023-07-29T02:12:50;12.38;;;8.50;;
55172;SDS011;41061;52.822;6.860;2023-07-29T02:15:16;11.48;;;7.80;;
55172;SDS011;41061;52.822;6.860;2023-07-29T02:17:42;9.95;;;7.63;;
55172;SDS011;41061;52.822;6.860;2023-07-29T02:20:08;10.75;;;8.13;;
55172;SDS011;41061;52.822;6.860;2023-07-29T02:22:35;12.25;;;7.45;;
55172;SDS011;41061;52.822;6.860;2023-07-29T02:25:02;11.52;;;6.75;;
55172;SDS011;41061;52.822;6.860;2023-07-29T02:27:28;9.30;;;7.20;;
55172;SDS011;41061;52.822;6.860;2023-07-29T02:29:54;11.13;;;7.00;;
55172;SDS011;41061;52.822;6.860;2023-07-29T02:32:21;9.57;;;7.03;;
55172;SDS011;41061;52.822;6.860;2023-07-29T02:34:47;10.27;;;6.88;;
55172;SDS011;41061;52.822;6.860;2023-07-29T02:37:13;10.15;;;7.40;;
55172;SDS011;41061;52.822;6.860;2023-07-29T02:39:39;8.98;;;6.80;;
55172;SDS011;41061;52.822;6.860;2023-07-29T02:42:05;7.53;;;6.47;;
55172;SDS011;41061;52.822;6.860;2023-07-29T02:44:31;8.98;;;7.05;;
55172;SDS011;41061;52.822;6.860;2023-07-29T02:46:57;9.43;;;6.53;;
55172;SDS011;41061;52.822;6.860;2023-07-29T02:49:23;9.07;;;6.53;;
55172;SDS011;41061;52.822;6.860;2023-07-29T02:51:49;8.35;;;6.68;;
55172;SDS011;41061;52.822;6.860;2023-07-29T02:54:16;8.48;;;6.80;;
55172;SDS011;41061;52.822;6.860;2023-07-29T02:56:42;8.48;;;6.30;;
55172;SDS011;41061;52.822;6.860;2023-07-29T02:59:08;8.40;;;6.55;;
55172;SDS011;41061;52.822;6.860;2023-07-29T03:01:34;11.05;;;7.20;;
55172;SDS011;41061;52.822;6.860;2023-07-29T03:04:00;8.30;;;6.13;;
55172;SDS011;41061;52.822;6.860;2023-07-29T03:06:26;7.18;;;6.35;;
55172;SDS011;41061;52.822;6.860;2023-07-29T03:08:52;11.20;;;6.05;;
55172;SDS011;41061;52.822;6.860;2023-07-29T03:11:18;10.88;;;5.88;;
55172;SDS011;41061;52.822;6.860;2023-07-29T03:13:45;8.95;;;6.00;;
55172;SDS011;41061;52.822;6.860;2023-07-29T03:16:12;5.97;;;5.30;;
55172;SDS011;41061;52.822;6.860;2023-07-29T03:18:39;9.82;;;5.68;;
55172;SDS011;41061;52.822;6.860;2023-07-29T03:21:05;12.95;;;5.45;;
55172;SDS011;41061;52.822;6.860;2023-07-29T03:23:31;12.05;;;5.75;;
55172;SDS011;41061;52.822;6.860;2023-07-29T03:25:58;6.55;;;5.03;;
55172;SDS011;41061;52.822;6.860;2023-07-29T03:28:25;6.55;;;4.72;;
55172;SDS011;41061;52.822;6.860;2023-07-29T03:30:52;6.93;;;4.53;;
55172;SDS011;41061;52.822;6.860;2023-07-29T03:33:19;5.90;;;4.65;;
55172;SDS011;41061;52.822;6.860;2023-07-29T03:35:45;6.22;;;4.53;;
55172;SDS011;41061;52.822;6.860;2023-07-29T03:38:11;8.75;;;4.50;;
55172;SDS011;41061;52.822;6.860;2023-07-29T03:40:38;7.28;;;4.63;;
55172;SDS011;41061;52.822;6.860;2023-07-29T03:43:04;10.70;;;4.35;;
55172;SDS011;41061;52.822;6.860;2023-07-29T03:45:30;6.45;;;4.30;;
55172;SDS011;41061;52.822;6.860;2023-07-29T03:47:56;7.68;;;4.60;;
55172;SDS011;41061;52.822;6.860;2023-07-29T03:50:22;6.20;;;4.35;;
55172;SDS011;41061;52.822;6.860;2023-07-29T03:52:49;7.40;;;4.32;;
55172;SDS011;41061;52.822;6.860;2023-07-29T03:55:15;6.32;;;4.13;;
55172;SDS011;41061;52.822;6.860;2023-07-29T03:57:41;7.53;;;4.15;;
55172;SDS011;41061;52.822;6.860;2023-07-29T04:00:07;5.70;;;3.65;;
55172;SDS011;41061;52.822;6.860;2023-07-29T04:02:37;5.25;;;3.63;;
55172;SDS011;41061;52.822;6.860;2023-07-29T04:05:04;4.45;;;3.22;;
55172;SDS011;41061;52.822;6.860;2023-07-29T04:07:31;5.03;;;3.15;;
55172;SDS011;41061;52.822;6.860;2023-07-29T04:09:57;4.90;;;3.33;;
55172;SDS011;41061;52.822;6.860;2023-07-29T04:12:24;5.45;;;3.47;;
55172;SDS011;41061;52.822;6.860;2023-07-29T04:14:50;5.07;;;3.22;;
55172;SDS011;41061;52.822;6.860;2023-07-29T04:17:16;5.50;;;3.30;;
55172;SDS011;41061;52.822;6.860;2023-07-29T04:19:42;5.25;;;3.35;;
55172;SDS011;41061;52.822;6.860;2023-07-29T04:22:08;4.40;;;3.13;;
55172;SDS011;41061;52.822;6.860;2023-07-29T04:24:34;4.57;;;3.20;;
55172;SDS011;41061;52.822;6.860;2023-07-29T04:27:00;6.47;;;3.20;;
55172;SDS011;41061;52.822;6.860;2023-07-29T04:29:26;7.90;;;3.47;;
55172;SDS011;41061;52.822;6.860;2023-07-29T04:31:53;5.88;;;3.72;;
55172;SDS011;41061;52.822;6.860;2023-07-29T04:34:19;5.80;;;4.43;;
55172;SDS011;41061;52.822;6.860;2023-07-29T04:36:45;8.18;;;4.10;;
55172;SDS011;41061;52.822;6.860;2023-07-29T04:39:12;4.53;;;3.55;;
55172;SDS011;41061;52.822;6.860;2023-07-29T04:41:38;5.13;;;3.80;;
55172;SDS011;41061;52.822;6.860;2023-07-29T04:44:04;6.03;;;3.30;;
55172;SDS011;41061;52.822;6.860;2023-07-29T04:46:30;7.07;;;3.90;;
55172;SDS011;41061;52.822;6.860;2023-07-29T04:48:56;4.95;;;3.50;;
55172;SDS011;41061;52.822;6.860;2023-07-29T04:51:23;5.22;;;3.90;;
55172;SDS011;41061;52.822;6.860;2023-07-29T04:53:49;5.47;;;3.80;;
55172;SDS011;41061;52.822;6.860;2023-07-29T04:56:15;5.53;;;3.47;;
55172;SDS011;41061;52.822;6.860;2023-07-29T04:58:41;4.93;;;3.25;;
55172;SDS011;41061;52.822;6.860;2023-07-29T05:01:07;7.47;;;4.85;;
55172;SDS011;41061;52.822;6.860;2023-07-29T05:03:33;4.25;;;3.22;;
55172;SDS011;41061;52.822;6.860;2023-07-29T05:05:59;4.18;;;2.78;;
55172;SDS011;41061;52.822;6.860;2023-07-29T05:08:26;5.55;;;2.70;;
55172;SDS011;41061;52.822;6.860;2023-07-29T05:10:52;7.47;;;3.40;;
55172;SDS011;41061;52.822;6.860;2023-07-29T05:13:19;3.78;;;2.60;;
55172;SDS011;41061;52.822;6.860;2023-07-29T05:15:46;4.22;;;2.42;;
55172;SDS011;41061;52.822;6.860;2023-07-29T05:18:13;3.58;;;2.78;;
55172;SDS011;41061;52.822;6.860;2023-07-29T05:20:39;6.63;;;2.70;;
55172;SDS011;41061;52.822;6.860;2023-07-29T05:23:05;4.38;;;2.50;;
55172;SDS011;41061;52.822;6.860;2023-07-29T05:25:31;3.97;;;2.20;;
55172;SDS011;41061;52.822;6.860;2023-07-29T05:28:00;4.30;;;2.15;;
55172;SDS011;41061;52.822;6.860;2023-07-29T05:30:26;4.00;;;2.28;;
55172;SDS011;41061;52.822;6.860;2023-07-29T05:32:56;4.95;;;2.70;;
55172;SDS011;41061;52.822;6.860;2023-07-29T05:35:22;3.78;;;2.17;;
55172;SDS011;41061;52.822;6.860;2023-07-29T05:37:48;3.95;;;2.45;;
55172;SDS011;41061;52.822;6.860;2023-07-29T05:40:14;3.20;;;2.20;;
55172;SDS011;41061;52.822;6.860;2023-07-29T05:42:40;5.95;;;2.60;;
55172;SDS011;41061;52.822;6.860;2023-07-29T05:45:07;5.50;;;2.85;;
55172;SDS011;41061;52.822;6.860;2023-07-29T05:47:33;3.28;;;2.28;;
55172;SDS011;41061;52.822;6.860;2023-07-29T05:49:59;3.47;;;2.30;;
55172;SDS011;41061;52.822;6.860;2023-07-29T05:52:29;5.22;;;2.30;;
55172;SDS011;41061;52.822;6.860;2023-07-29T05:54:55;6.32;;;2.70;;
55172;SDS011;41061;52.822;6.860;2023-07-29T05:57:21;6.72;;;2.60;;
55172;SDS011;41061;52.822;6.860;2023-07-29T05:59:47;6.78;;;2.95;;
55172;SDS011;41061;52.822;6.860;2023-07-29T06:02:13;4.95;;;2.80;;
55172;SDS011;41061;52.822;6.860;2023-07-29T06:04:39;6.65;;;3.00;;
55172;SDS011;41061;52.822;6.860;2023-07-29T06:07:06;5.38;;;2.88;;
55172;SDS011;41061;52.822;6.860;2023-07-29T06:09:32;6.72;;;3.20;;
55172;SDS011;41061;52.822;6.860;2023-07-29T06:11:58;6.85;;;2.95;;
55172;SDS011;41061;52.822;6.860;2023-07-29T06:14:24;7.18;;;3.60;;
55172;SDS011;41061;52.822;6.860;2023-07-29T06:16:50;6.65;;;3.63;;
55172;SDS011;41061;52.822;6.860;2023-07-29T06:19:17;7.88;;;4.13;;
55172;SDS011;41061;52.822;6.860;2023-07-29T06:21:43;7.13;;;3.88;;
55172;SDS011;41061;52.822;6.860;2023-07-29T06:24:09;6.97;;;3.63;;
55172;SDS011;41061;52.822;6.860;2023-07-29T06:26:35;8.00;;;3.67;;
55172;SDS011;41061;52.822;6.860;2023-07-29T06:29:01;8.05;;;4.22;;
55172;SDS011;41061;52.822;6.860;2023-07-29T06:31:27;7.70;;;4.22;;
55172;SDS011;41061;52.822;6.860;2023-07-29T06:33:54;9.50;;;4.50;;
55172;SDS011;41061;52.822;6.860;2023-07-29T06:36:20;10.13;;;4.43;;
55172;SDS011;41061;52.822;6.860;2023-07-29T06:38:47;7.07;;;3.72;;
55172;SDS011;41061;52.822;6.860;2023-07-29T06:41:13;6.35;;;3.55;;
55172;SDS011;41061;52.822;6.860;2023-07-29T06:43:39;7.40;;;4.32;;
55172;SDS011;41061;52.822;6.860;2023-07-29T06:46:05;8.68;;;4.13;;
55172;SDS011;41061;52.822;6.860;2023-07-29T06:48:31;5.75;;;3.45;;
55172;SDS011;41061;52.822;6.860;2023-07-29T06:50:57;5.78;;;3.90;;
55172;SDS011;41061;52.822;6.860;2023-07-29T06:53:26;8.57;;;4.47;;
55172;SDS011;41061;52.822;6.860;2023-07-29T06:55:52;6.57;;;3.75;;
55172;SDS011;41061;52.822;6.860;2023-07-29T06:58:18;7.15;;;4.25;;
55172;SDS011;41061;52.822;6.860;2023-07-29T07:00:44;6.75;;;4.35;;
55172;SDS011;41061;52.822;6.860;2023-07-29T07:03:11;9.85;;;4.38;;
55172;SDS011;41061;52.822;6.860;2023-07-29T07:05:37;12.40;;;4.40;;
55172;SDS011;41061;52.822;6.860;2023-07-29T07:08:03;11.15;;;4.78;;
55172;SDS011;41061;52.822;6.860;2023-07-29T07:10:29;10.77;;;4.40;;
55172;SDS011;41061;52.822;6.860;2023-07-29T07:12:55;8.70;;;4.65;;
55172;SDS011;41061;52.822;6.860;2023-07-29T07:15:21;10.20;;;4.60;;
55172;SDS011;41061;52.822;6.860;2023-07-29T07:17:48;7.13;;;4.60;;
55172;SDS011;41061;52.822;6.860;2023-07-29T07:20:14;7.88;;;4.85;;
55172;SDS011;41061;52.822;6.860;2023-07-29T07:22:40;8.65;;;4.97;;
55172;SDS011;41061;52.822;6.860;2023-07-29T07:25:06;11.75;;;5.55;;
55172;SDS011;41061;52.822;6.860;2023-07-29T07:27:32;8.38;;;4.80;;
55172;SDS011;41061;52.822;6.860;2023-07-29T07:29:58;6.97;;;4.75;;
55172;SDS011;41061;52.822;6.860;2023-07-29T07:32:25;8.55;;;5.00;;
55172;SDS011;41061;52.822;6.860;2023-07-29T07:34:51;8.95;;;5.35;;
55172;SDS011;41061;52.822;6.860;2023-07-29T07:37:17;9.07;;;5.47;;
55172;SDS011;41061;52.822;6.860;2023-07-29T07:39:44;8.57;;;5.20;;
55172;SDS011;41061;52.822;6.860;2023-07-29T07:42:10;9.00;;;5.43;;
55172;SDS011;41061;52.822;6.860;2023-07-29T07:44:36;10.10;;;5.13;;
55172;SDS011;41061;52.822;6.860;2023-07-29T07:47:02;10.00;;;5.38;;
55172;SDS011;41061;52.822;6.860;2023-07-29T07:49:28;8.55;;;4.70;;
55172;SDS011;41061;52.822;6.860;2023-07-29T07:51:54;9.18;;;4.80;;
55172;SDS011;41061;52.822;6.860;2023-07-29T07:54:20;6.00;;;4.47;;
55172;SDS011;41061;52.822;6.860;2023-07-29T07:56:46;7.68;;;3.92;;
55172;SDS011;41061;52.822;6.860;2023-07-29T07:59:12;10.95;;;4.22;;
55172;SDS011;41061;52.822;6.860;2023-07-29T08:01:39;12.45;;;3.40;;
55172;SDS011;41061;52.822;6.860;2023-07-29T08:04:05;8.55;;;3.33;;
55172;SDS011;41061;52.822;6.860;2023-07-29T08:06:31;5.10;;;3.28;;
55172;SDS011;41061;52.822;6.860;2023-07-29T08:08:57;9.07;;;3.40;;
55172;SDS011;41061;52.822;6.860;2023-07-29T08:11:23;7.82;;;3.47;;
55172;SDS011;41061;52.822;6.860;2023-07-29T08:13:50;5.72;;;2.85;;
55172;SDS011;41061;52.822;6.860;2023-07-29T08:16:16;6.22;;;2.67;;
55172;SDS011;41061;52.822;6.860;2023-07-29T08:18:42;7.25;;;3.10;;
55172;SDS011;41061;52.822;6.860;2023-07-29T08:21:08;4.82;;;2.40;;
55172;SDS011;41061;52.822;6.860;2023-07-29T08:23:35;7.63;;;2.50;;
55172;SDS011;41061;52.822;6.860;2023-07-29T08:26:03;6.45;;;2.50;;
55172;SDS011;41061;52.822;6.860;2023-07-29T08:28:34;5.32;;;2.50;;
55172;SDS011;41061;52.822;6.860;2023-07-29T08:31:00;3.38;;;1.90;;
55172;SDS011;41061;52.822;6.860;2023-07-29T08:33:26;5.28;;;2.10;;
55172;SDS011;41061;52.822;6.860;2023-07-29T08:35:53;5.03;;;2.13;;
55172;SDS011;41061;52.822;6.860;2023-07-29T08:38:19;7.13;;;2.67;;
55172;SDS011;41061;52.822;6.860;2023-07-29T08:40:49;5.07;;;1.80;;
55172;SDS011;41061;52.822;6.860;2023-07-29T08:43:16;7.95;;;2.42;;
55172;SDS011;41061;52.822;6.860;2023-07-29T08:45:43;4.60;;;2.20;;
55172;SDS011;41061;52.822;6.860;2023-07-29T08:48:10;3.80;;;2.30;;
55172;SDS011;41061;52.822;6.860;2023-07-29T08:50:36;4.45;;;1.83;;
55172;SDS011;41061;52.822;6.860;2023-07-29T08:53:06;2.85;;;1.92;;
55172;SDS011;41061;52.822;6.860;2023-07-29T08:55:32;3.35;;;1.60;;
55172;SDS011;41061;52.822;6.860;2023-07-29T08:57:59;7.80;;;1.90;;
55172;SDS011;41061;52.822;6.860;2023-07-29T09:00:26;5.28;;;2.38;;
55172;SDS011;41061;52.822;6.860;2023-07-29T09:02:52;4.75;;;2.10;;
55172;SDS011;41061;52.822;6.860;2023-07-29T09:05:20;7.65;;;2.53;;
55172;SDS011;41061;52.822;6.860;2023-07-29T09:07:46;4.57;;;2.28;;
55172;SDS011;41061;52.822;6.860;2023-07-29T09:10:13;5.35;;;2.25;;
55172;SDS011;41061;52.822;6.860;2023-07-29T09:12:40;4.32;;;2.20;;
55172;SDS011;41061;52.822;6.860;2023-07-29T09:15:06;4.10;;;1.95;;
55172;SDS011;41061;52.822;6.860;2023-07-29T09:17:33;5.70;;;2.28;;
55172;SDS011;41061;52.822;6.860;2023-07-29T09:19:59;5.20;;;2.30;;
55172;SDS011;41061;52.822;6.860;2023-07-29T09:22:26;2.53;;;1.50;;
55172;SDS011;41061;52.822;6.860;2023-07-29T09:24:52;5.35;;;1.70;;
55172;SDS011;41061;52.822;6.860;2023-07-29T09:27:28;4.75;;;1.90;;
55172;SDS011;41061;52.822;6.860;2023-07-29T09:29:57;3.67;;;1.70;;
55172;SDS011;41061;52.822;6.860;2023-07-29T09:32:23;4.65;;;1.63;;
55172;SDS011;41061;52.822;6.860;2023-07-29T09:34:50;2.10;;;1.42;;
55172;SDS011;41061;52.822;6.860;2023-07-29T09:37:22;4.28;;;1.50;;
55172;SDS011;41061;52.822;6.860;2023-07-29T09:39:49;2.08;;;1.45;;
55172;SDS011;41061;52.822;6.860;2023-07-29T09:42:18;2.10;;;1.20;;
55172;SDS011;41061;52.822;6.860;2023-07-29T09:44:45;2.70;;;1.40;;
55172;SDS011;41061;52.822;6.860;2023-07-29T09:47:21;4.65;;;1.48;;
55172;SDS011;41061;52.822;6.860;2023-07-29T09:49:48;5.20;;;1.40;;
55172;SDS011;41061;52.822;6.860;2023-07-29T09:52:17;2.95;;;1.63;;
55172;SDS011;41061;52.822;6.860;2023-07-29T09:54:44;3.72;;;1.65;;
55172;SDS011;41061;52.822;6.860;2023-07-29T09:57:13;3.88;;;1.30;;
55172;SDS011;41061;52.822;6.860;2023-07-29T09:59:39;2.88;;;1.15;;
55172;SDS011;41061;52.822;6.860;2023-07-29T10:02:13;5.40;;;1.88;;
55172;SDS011;41061;52.822;6.860;2023-07-29T10:04:41;3.58;;;1.40;;
55172;SDS011;41061;52.822;6.860;2023-07-29T10:07:09;3.20;;;1.23;;
55172;SDS011;41061;52.822;6.860;2023-07-29T10:09:35;3.28;;;1.77;;
55172;SDS011;41061;52.822;6.860;2023-07-29T10:12:02;6.10;;;2.17;;
55172;SDS011;41061;52.822;6.860;2023-07-29T10:14:29;2.53;;;1.20;;
55172;SDS011;41061;52.822;6.860;2023-07-29T10:16:56;4.97;;;1.42;;
55172;SDS011;41061;52.822;6.860;2023-07-29T10:19:23;3.45;;;1.42;;
55172;SDS011;41061;52.822;6.860;2023-07-29T10:21:53;2.95;;;1.55;;
55172;SDS011;41061;52.822;6.860;2023-07-29T10:24:22;4.85;;;1.70;;
55172;SDS011;41061;52.822;6.860;2023-07-29T10:26:54;3.95;;;1.58;;
55172;SDS011;41061;52.822;6.860;2023-07-29T10:29:23;2.78;;;1.17;;
55172;SDS011;41061;52.822;6.860;2023-07-29T10:31:51;4.18;;;1.45;;
55172;SDS011;41061;52.822;6.860;2023-07-29T10:34:18;3.78;;;1.42;;
55172;SDS011;41061;52.822;6.860;2023-07-29T10:36:46;4.18;;;1.10;;
55172;SDS011;41061;52.822;6.860;2023-07-29T10:39:13;4.32;;;1.33;;
55172;SDS011;41061;52.822;6.860;2023-07-29T10:42:01;2.97;;;1.20;;
55172;SDS011;41061;52.822;6.860;2023-07-29T10:49:48;4.50;;;1.40;;
55172;SDS011;41061;52.822;6.860;2023-07-29T10:52:15;3.55;;;1.40;;
55172;SDS011;41061;52.822;6.860;2023-07-29T10:54:42;3.33;;;1.33;;
55172;SDS011;41061;52.822;6.860;2023-07-29T10:57:12;1.98;;;1.45;;
55172;SDS011;41061;52.822;6.860;2023-07-29T10:59:39;2.67;;;1.38;;
55172;SDS011;41061;52.822;6.860;2023-07-29T11:02:15;4.32;;;1.80;;
55172;SDS011;41061;52.822;6.860;2023-07-29T11:04:49;5.03;;;2.05;;
55172;SDS011;41061;52.822;6.860;2023-07-29T11:15:00;3.78;;;2.08;;
55172;SDS011;41061;52.822;6.860;2023-07-29T11:17:29;3.83;;;2.10;;
55172;SDS011;41061;52.822;6.860;2023-07-29T11:19:57;3.45;;;2.50;;
55172;SDS011;41061;52.822;6.860;2023-07-29T11:22:26;4.05;;;2.22;;
55172;SDS011;41061;52.822;6.860;2023-07-29T11:24:52;4.07;;;2.42;;
55172;SDS011;41061;52.822;6.860;2023-07-29T11:27:18;4.05;;;2.50;;
55172;SDS011;41061;52.822;6.860;2023-07-29T11:29:44;3.83;;;2.20;;
55172;SDS011;41061;52.822;6.860;2023-07-29T11:32:10;6.40;;;2.30;;
55172;SDS011;41061;52.822;6.860;2023-07-29T11:34:36;3.85;;;1.90;;
55172;SDS011;41061;52.822;6.860;2023-07-29T11:37:02;3.58;;;2.08;;
55172;SDS011;41061;52.822;6.860;2023-07-29T11:39:31;3.47;;;2.20;;
55172;SDS011;41061;52.822;6.860;2023-07-29T11:41:57;2.70;;;2.08;;
55172;SDS011;41061;52.822;6.860;2023-07-29T11:44:24;2.47;;;1.83;;
55172;SDS011;41061;52.822;6.860;2023-07-29T11:46:51;5.18;;;2.10;;
55172;SDS011;41061;52.822;6.860;2023-07-29T11:49:17;2.80;;;1.90;;
55172;SDS011;41061;52.822;6.860;2023-07-29T11:51:43;5.38;;;1.90;;
55172;SDS011;41061;52.822;6.860;2023-07-29T11:54:09;3.53;;;2.10;;
55172;SDS011;41061;52.822;6.860;2023-07-29T11:56:35;8.30;;;2.33;;
55172;SDS011;41061;52.822;6.860;2023-07-29T11:59:02;5.72;;;2.50;;
55172;SDS011;41061;52.822;6.860;2023-07-29T12:01:29;3.83;;;1.90;;
55172;SDS011;41061;52.822;6.860;2023-07-29T12:03:55;2.70;;;1.83;;
55172;SDS011;41061;52.822;6.860;2023-07-29T12:06:22;7.88;;;2.72;;
55172;SDS011;41061;52.822;6.860;2023-07-29T12:08:49;6.30;;;2.40;;
55172;SDS011;41061;52.822;6.860;2023-07-29T12:11:15;8.00;;;2.33;;
55172;SDS011;41061;52.822;6.860;2023-07-29T12:13:42;4.88;;;2.17;;
55172;SDS011;41061;52.822;6.860;2023-07-29T12:16:08;4.63;;;2.15;;
55172;SDS011;41061;52.822;6.860;2023-07-29T12:18:35;4.30;;;1.98;;
55172;SDS011;41061;52.822;6.860;2023-07-29T12:21:02;3.92;;;1.80;;
55172;SDS011;41061;52.822;6.860;2023-07-29T12:23:29;3.03;;;1.50;;
55172;SDS011;41061;52.822;6.860;2023-07-29T12:25:58;5.07;;;1.58;;
55172;SDS011;41061;52.822;6.860;2023-07-29T12:28:25;2.22;;;1.25;;
55172;SDS011;41061;52.822;6.860;2023-07-29T12:30:54;3.63;;;1.40;;
55172;SDS011;41061;52.822;6.860;2023-07-29T12:33:36;4.25;;;1.50;;
55172;SDS011;41061;52.822;6.860;2023-07-29T12:36:04;5.22;;;1.50;;
55172;SDS011;41061;52.822;6.860;2023-07-29T12:38:30;4.22;;;1.42;;
55172;SDS011;41061;52.822;6.860;2023-07-29T12:40:56;3.78;;;1.33;;
55172;SDS011;41061;52.822;6.860;2023-07-29T12:43:22;3.80;;;1.70;;
55172;SDS011;41061;52.822;6.860;2023-07-29T12:45:49;2.10;;;1.17;;
55172;SDS011;41061;52.822;6.860;2023-07-29T12:48:15;2.60;;;1.40;;
55172;SDS011;41061;52.822;6.860;2023-07-29T12:50:41;4.00;;;1.30;;
55172;SDS011;41061;52.822;6.860;2023-07-29T12:53:08;4.28;;;1.60;;
55172;SDS011;41061;52.822;6.860;2023-07-29T12:55:37;3.63;;;1.70;;
55172;SDS011;41061;52.822;6.860;2023-07-29T12:58:03;3.05;;;1.48;;
55172;SDS011;41061;52.822;6.860;2023-07-29T13:00:29;5.75;;;1.50;;
55172;SDS011;41061;52.822;6.860;2023-07-29T13:02:56;4.88;;;1.65;;
55172;SDS011;41061;52.822;6.860;2023-07-29T13:05:22;3.10;;;1.38;;
55172;SDS011;41061;52.822;6.860;2023-07-29T13:07:48;3.65;;;1.52;;
55172;SDS011;41061;52.822;6.860;2023-07-29T13:10:14;4.13;;;1.48;;
55172;SDS011;41061;52.822;6.860;2023-07-29T13:12:40;2.92;;;1.40;;
55172;SDS011;41061;52.822;6.860;2023-07-29T13:15:06;2.28;;;1.13;;
55172;SDS011;41061;52.822;6.860;2023-07-29T13:17:36;2.90;;;1.63;;
55172;SDS011;41061;52.822;6.860;2023-07-29T13:20:03;2.80;;;1.35;;
55172;SDS011;41061;52.822;6.860;2023-07-29T13:22:29;2.28;;;1.30;;
55172;SDS011;41061;52.822;6.860;2023-07-29T13:24:55;3.45;;;1.67;;
55172;SDS011;41061;52.822;6.860;2023-07-29T13:27:21;7.68;;;1.50;;
55172;SDS011;41061;52.822;6.860;2023-07-29T13:29:49;3.53;;;1.40;;
55172;SDS011;41061;52.822;6.860;2023-07-29T13:32:15;4.55;;;1.73;;
55172;SDS011;41061;52.822;6.860;2023-07-29T13:34:42;3.63;;;1.83;;
55172;SDS011;41061;52.822;6.860;2023-07-29T13:37:08;6.53;;;1.83;;
55172;SDS011;41061;52.822;6.860;2023-07-29T13:39:34;4.38;;;1.58;;
55172;SDS011;41061;52.822;6.860;2023-07-29T13:42:01;2.20;;;1.30;;
55172;SDS011;41061;52.822;6.860;2023-07-29T13:44:27;4.28;;;1.40;;
55172;SDS011;41061;52.822;6.860;2023-07-29T13:46:53;4.15;;;1.98;;
55172;SDS011;41061;52.822;6.860;2023-07-29T13:49:19;7.68;;;1.63;;
55172;SDS011;41061;52.822;6.860;2023-07-29T13:51:45;7.18;;;1.88;;
55172;SDS011;41061;52.822;6.860;2023-07-29T13:54:11;4.95;;;1.58;;
55172;SDS011;41061;52.822;6.860;2023-07-29T13:56:37;3.70;;;1.80;;
55172;SDS011;41061;52.822;6.860;2023-07-29T13:59:03;4.03;;;1.85;;
55172;SDS011;41061;52.822;6.860;2023-07-29T14:01:29;10.13;;;1.90;;
55172;SDS011;41061;52.822;6.860;2023-07-29T14:03:55;6.57;;;2.08;;
55172;SDS011;41061;52.822;6.860;2023-07-29T14:06:21;7.70;;;1.50;;
55172;SDS011;41061;52.822;6.860;2023-07-29T14:08:48;1.90;;;1.00;;
55172;SDS011;41061;52.822;6.860;2023-07-29T14:11:14;2.00;;;0.80;;
55172;SDS011;41061;52.822;6.860;2023-07-29T14:13:40;4.28;;;1.02;;
55172;SDS011;41061;52.822;6.860;2023-07-29T14:16:06;4.32;;;1.00;;
55172;SDS011;41061;52.822;6.860;2023-07-29T14:18:32;3.60;;;1.13;;
55172;SDS011;41061;52.822;6.860;2023-07-29T14:20:58;3.88;;;1.02;;
55172;SDS011;41061;52.822;6.860;2023-07-29T14:23:24;4.72;;;1.05;;
55172;SDS011;41061;52.822;6.860;2023-07-29T14:25:50;3.38;;;1.20;;
55172;SDS011;41061;52.822;6.860;2023-07-29T14:28:16;3.53;;;1.35;;
55172;SDS011;41061;52.822;6.860;2023-07-29T14:30:42;4.38;;;1.15;;
55172;SDS011;41061;52.822;6.860;2023-07-29T14:33:08;6.47;;;2.25;;
55172;SDS011;41061;52.822;6.860;2023-07-29T14:35:35;5.20;;;1.65;;
55172;SDS011;41061;52.822;6.860;2023-07-29T14:38:01;4.45;;;1.42;;
55172;SDS011;41061;52.822;6.860;2023-07-29T14:40:27;6.80;;;1.73;;
55172;SDS011;41061;52.822;6.860;2023-07-29T14:42:53;4.90;;;1.92;;
55172;SDS011;41061;52.822;6.860;2023-07-29T14:45:19;2.95;;;1.20;;
55172;SDS011;41061;52.822;6.860;2023-07-29T14:47:45;4.35;;;1.52;;
55172;SDS011;41061;52.822;6.860;2023-07-29T14:50:11;3.45;;;1.50;;
55172;SDS011;41061;52.822;6.860;2023-07-29T14:52:37;2.05;;;1.15;;
55172;SDS011;41061;52.822;6.860;2023-07-29T14:55:03;2.25;;;1.00;;
55172;SDS011;41061;52.822;6.860;2023-07-29T14:57:30;5.18;;;1.38;;
55172;SDS011;41061;52.822;6.860;2023-07-29T14:59:56;6.25;;;1.40;;
55172;SDS011;41061;52.822;6.860;2023-07-29T15:02:22;2.53;;;1.38;;